Accueil
METAR-TAF:

METAR-TAF

Aéroports :

Mardin, Turquie

latitude: 37-13-58N, longitude: 40-38-26E, altitude: 527 m

Observation

Le bulletin a été fait il y a 52 minutes, à 09:50 UTC
Vent 5 kt de direction variable
Température 41°C
Humidité 14%
Pression 1000 hPa
Visibilité 10 km ou plus
Nuages épars à une hauteur de 4000 ft

METAR: LTCR 070950Z VRB05KT 9999 SCT040 41/08 Q1000

Heure: 13:42 (10:42 UTC)

Prévision

Le bulletin a été fait il y a 3 heures et 2 minutes, à 07:40 UTC
Prévision valable du 07 à 09 UTC au 07 à 18 UTC
Vent 8 kt de sud/sud-ouest
Visibilité 10 km ou plus
Quelques nuages à une hauteur de 4000 ft
Evoluant progressivement
du 07 à 11 UTC au 07 à 13 UTC
Vent 16 kt de ouest
Evoluant progressivement
du 07 à 14 UTC au 07 à 17 UTC
Visibilité 10 km ou plus
pas de nuages en-dessous de 1500 mètres et pas de cumulonimbus.

TAF: LTCR 070740Z 0709/0718 20008KT 9999 FEW040 BECMG 0711/0713 26016KT BECMG 0714/0717 CAVOK

Observations et prévisions météorologiques de plus de 4000 aéroports (messages METAR et TAF).

Les stations disponibles sont représentées par des disques jaunes et rouges sur la carte.

Passer la souris dessus pour voir le nom de la station.

Cliquer dessus pour voir les observations et prévisions météorologiques.

Pour changer de carte: cliquez sur les boutons verts avec une croix noire pour zoomer, sur le bouton vert avec un tiret pour effectuer un zoom arrière, ou sur les flèches vertes pour les cartes adjacentes.


METAR-TAF: